createdAt,value
2022-11-24T00:01:08.895Z,78.52
2022-11-24T00:03:56.785Z,78.41
2022-11-24T00:06:39.829Z,78.38
2022-11-24T00:09:22.787Z,78.39
2022-11-24T00:12:06.030Z,78.29
2022-11-24T00:14:49.021Z,78.15
2022-11-24T00:17:32.844Z,78.17
2022-11-24T00:20:17.954Z,78.14
2022-11-24T00:23:01.580Z,78.53
2022-11-24T00:25:44.610Z,78.92
2022-11-24T00:28:27.626Z,78.53
2022-11-24T00:31:17.730Z,78.46
2022-11-24T00:34:02.736Z,78.47
2022-11-24T00:36:47.084Z,78.31
2022-11-24T00:39:30.084Z,78.30
2022-11-24T00:42:14.287Z,78.38
2022-11-24T00:44:57.234Z,78.42
2022-11-24T00:47:40.146Z,78.35
2022-11-24T00:50:23.150Z,78.17
2022-11-24T00:53:07.518Z,78.19
2022-11-24T00:55:50.993Z,78.43
2022-11-24T00:58:34.767Z,78.29
2022-11-24T01:01:20.649Z,78.34
2022-11-24T01:04:03.773Z,78.22
2022-11-24T01:06:46.728Z,78.03
2022-11-24T01:09:31.106Z,78.32
2022-11-24T01:12:14.033Z,78.06
2022-11-24T01:14:57.155Z,78.17
2022-11-24T01:17:40.171Z,78.11
2022-11-24T01:20:23.248Z,78.08
2022-11-24T01:23:06.246Z,78.21
2022-11-24T01:25:50.645Z,77.95
2022-11-24T01:28:33.649Z,78.06
2022-11-24T01:31:17.613Z,78.16
2022-11-24T01:34:00.679Z,78.16
2022-11-24T01:36:43.677Z,78.18
2022-11-24T01:39:26.574Z,78.44
2022-11-24T01:42:10.953Z,78.28
2022-11-24T01:45:31.976Z,78.22
2022-11-24T01:48:25.968Z,78.36
2022-11-24T01:51:16.119Z,78.26
2022-11-24T01:54:03.054Z,78.03
2022-11-24T01:56:52.421Z,78.17
2022-11-24T01:59:37.453Z,77.99
2022-11-24T02:02:21.564Z,77.99
2022-11-24T02:05:09.249Z,77.85
2022-11-24T02:07:54.427Z,78.00
2022-11-24T02:10:38.578Z,78.23
2022-11-24T02:13:22.749Z,78.06
2022-11-24T02:16:09.726Z,78.14
2022-11-24T02:18:52.998Z,77.95
2022-11-24T02:21:36.026Z,77.97
2022-11-24T02:24:26.270Z,77.99
2022-11-24T02:27:11.283Z,77.81
2022-11-24T02:29:54.391Z,77.77
2022-11-24T02:32:41.557Z,77.87
2022-11-24T02:35:24.586Z,77.79
2022-11-24T02:38:07.588Z,77.88
2022-11-24T02:40:50.873Z,77.75
2022-11-24T02:43:39.885Z,77.87
2022-11-24T02:46:23.010Z,77.80
2022-11-24T02:49:06.031Z,77.83
2022-11-24T02:51:49.145Z,77.85
2022-11-24T02:54:32.467Z,77.89
2022-11-24T02:57:16.368Z,77.90
2022-11-24T03:00:00.812Z,77.91
2022-11-24T03:02:43.762Z,77.99
2022-11-24T03:05:27.422Z,77.94
2022-11-24T03:08:10.402Z,77.79
2022-11-24T03:10:53.344Z,78.02
2022-11-24T03:13:36.248Z,78.05
2022-11-24T03:16:20.899Z,77.81
2022-11-24T03:19:04.811Z,77.85
2022-11-24T03:21:47.761Z,78.02
2022-11-24T03:24:30.983Z,77.95
2022-11-24T03:27:14.577Z,78.04
2022-11-24T03:29:57.547Z,77.88
2022-11-24T03:32:42.639Z,78.11
2022-11-24T03:35:26.010Z,78.03
2022-11-24T03:38:09.047Z,78.02
2022-11-24T03:40:52.331Z,77.80
2022-11-24T03:43:40.406Z,77.94
2022-11-24T03:46:26.360Z,78.03
2022-11-24T03:49:10.953Z,78.04
2022-11-24T03:51:53.889Z,78.10
2022-11-24T03:54:36.846Z,78.16
2022-11-24T03:57:19.949Z,77.75
2022-11-24T04:00:04.900Z,77.79
2022-11-24T04:02:48.706Z,77.92
2022-11-24T04:05:36.349Z,78.13
2022-11-24T04:08:19.801Z,77.98
2022-11-24T04:11:02.801Z,77.97
2022-11-24T04:13:47.732Z,77.84
2022-11-24T04:16:30.790Z,77.98
2022-11-24T04:19:13.760Z,78.24
2022-11-24T04:21:58.122Z,78.02
2022-11-24T04:24:41.100Z,77.93
2022-11-24T04:27:24.055Z,77.96
2022-11-24T04:30:08.587Z,78.01
2022-11-24T04:32:51.629Z,78.03
2022-11-24T04:35:34.620Z,77.90
2022-11-24T04:39:25.368Z,78.09
2022-11-24T04:41:21.935Z,77.96
2022-11-24T04:44:04.976Z,78.15
2022-11-24T04:46:48.072Z,77.96
2022-11-24T04:49:31.407Z,78.07
2022-11-24T04:52:14.400Z,78.05
2022-11-24T04:54:58.743Z,78.11
2022-11-24T04:57:41.740Z,78.19
2022-11-24T05:00:24.686Z,78.43
2022-11-24T05:03:07.648Z,78.28
2022-11-24T05:05:50.954Z,78.17
2022-11-24T05:08:33.943Z,78.15
2022-11-24T05:11:18.670Z,78.19
2022-11-24T05:14:02.026Z,78.29
2022-11-24T05:16:45.048Z,78.38
2022-11-24T05:19:31.229Z,78.17
2022-11-24T05:22:15.417Z,78.15
2022-11-24T05:24:58.597Z,78.15
2022-11-24T05:27:42.962Z,78.29
2022-11-24T05:30:25.889Z,78.36
2022-11-24T05:33:11.587Z,77.98
2022-11-24T05:35:54.539Z,78.11
2022-11-24T05:38:37.495Z,78.14
2022-11-24T05:41:20.438Z,77.98
2022-11-24T05:44:04.854Z,78.26
2022-11-24T05:46:47.894Z,78.49
2022-11-24T05:49:30.905Z,78.39
2022-11-24T05:52:13.962Z,78.18
2022-11-24T05:54:56.968Z,78.07
2022-11-24T05:57:39.944Z,78.40
2022-11-24T06:00:24.319Z,78.14
2022-11-24T06:03:07.424Z,78.52
2022-11-24T06:05:50.497Z,78.32
2022-11-24T06:08:33.422Z,78.37
2022-11-24T06:11:19.077Z,78.40
2022-11-24T06:14:04.663Z,78.44
2022-11-24T06:16:51.441Z,78.65
2022-11-24T06:19:37.477Z,78.91
2022-11-24T06:22:24.611Z,78.85
2022-11-24T06:25:09.321Z,78.85
2022-11-24T06:27:52.295Z,79.04
2022-11-24T06:30:35.195Z,78.98
2022-11-24T06:33:19.638Z,79.06
2022-11-24T06:36:03.580Z,79.29
2022-11-24T06:38:46.499Z,79.27
2022-11-24T06:41:29.664Z,79.26
2022-11-24T06:44:12.657Z,79.27
2022-11-24T06:46:55.677Z,79.39
2022-11-24T06:49:39.969Z,79.58
2022-11-24T06:52:22.929Z,79.69
2022-11-24T06:55:06.759Z,80.10
2022-11-24T06:57:49.733Z,80.10
2022-11-24T07:00:32.729Z,80.17
2022-11-24T07:03:19.052Z,79.99
2022-11-24T07:06:03.494Z,79.96
2022-11-24T07:08:46.685Z,80.14
2022-11-24T07:11:29.667Z,79.92
2022-11-24T07:14:12.763Z,80.10
2022-11-24T07:16:55.784Z,79.97
2022-11-24T07:19:38.770Z,79.93
2022-11-24T07:22:23.259Z,79.87
2022-11-24T07:25:09.785Z,80.14
2022-11-24T07:27:57.111Z,80.09
2022-11-24T07:30:40.057Z,79.91
2022-11-24T07:33:25.285Z,80.16
2022-11-24T07:36:10.018Z,80.18
2022-11-24T07:38:54.371Z,80.14
2022-11-24T07:41:37.639Z,80.04
2022-11-24T07:44:20.547Z,80.05
2022-11-24T07:47:03.621Z,80.37
2022-11-24T07:49:46.579Z,80.56
2022-11-24T07:52:29.556Z,80.65
2022-11-24T07:55:13.891Z,80.34
2022-11-24T07:58:00.495Z,80.43
2022-11-24T08:00:43.474Z,80.60
2022-11-24T08:03:26.845Z,80.55
2022-11-24T08:06:28.992Z,80.78
2022-11-24T08:09:13.065Z,80.58
2022-11-24T08:11:57.420Z,80.70
2022-11-24T08:14:40.325Z,80.70
2022-11-24T08:17:23.313Z,80.38
2022-11-24T08:20:07.433Z,80.52
2022-11-24T08:22:50.606Z,80.68
2022-11-24T08:25:33.643Z,80.65
2022-11-24T08:28:17.999Z,80.71
2022-11-24T08:31:05.241Z,80.76
2022-11-24T08:33:48.796Z,81.00
2022-11-24T08:36:32.279Z,80.97
2022-11-24T08:39:15.224Z,80.87
2022-11-24T08:41:58.430Z,81.13
2022-11-24T08:44:43.086Z,80.86
2022-11-24T08:47:26.074Z,81.07
2022-11-24T08:50:09.951Z,81.09
2022-11-24T08:52:53.721Z,81.16
2022-11-24T08:55:36.641Z,81.03
2022-11-24T08:58:19.677Z,81.01
2022-11-24T09:01:08.267Z,81.16
2022-11-24T09:03:52.204Z,81.12
2022-11-24T09:06:35.272Z,81.10
2022-11-24T09:09:18.286Z,81.02
2022-11-24T09:12:01.325Z,81.06
2022-11-24T09:14:44.304Z,81.15
2022-11-24T09:17:28.669Z,81.26
2022-11-24T09:20:11.838Z,81.35
2022-11-24T09:22:54.760Z,81.46
2022-11-24T09:25:37.892Z,81.52
2022-11-24T09:28:20.899Z,81.77
2022-11-24T09:31:04.932Z,81.92
2022-11-24T09:33:49.379Z,82.30
2022-11-24T09:36:32.601Z,82.06
2022-11-24T09:39:15.511Z,82.01
2022-11-24T09:42:08.603Z,82.21
2022-11-24T09:45:48.863Z,82.20
2022-11-24T09:48:30.563Z,82.08
2022-11-24T09:51:16.579Z,82.22
2022-11-24T09:54:03.737Z,82.52
2022-11-24T09:56:48.021Z,82.17
2022-11-24T09:59:31.335Z,82.12
2022-11-24T10:02:14.985Z,82.08
2022-11-24T10:04:58.038Z,82.11
2022-11-24T10:07:49.652Z,82.37
2022-11-24T10:10:42.032Z,82.53
2022-11-24T10:13:49.944Z,82.61
2022-11-24T10:16:46.526Z,82.54
2022-11-24T10:19:40.445Z,82.76
2022-11-24T10:22:37.913Z,82.52
2022-11-24T10:25:27.027Z,82.65
2022-11-24T10:28:13.786Z,82.47
2022-11-24T10:31:11.390Z,82.51
2022-11-24T10:33:54.374Z,82.49
2022-11-24T10:36:44.972Z,82.25
2022-11-24T10:39:32.560Z,82.41
2022-11-24T10:42:22.655Z,82.77
2022-11-24T10:45:12.766Z,82.59
2022-11-24T10:47:55.721Z,82.55
2022-11-24T10:50:41.795Z,82.74
2022-11-24T10:53:29.095Z,82.43
2022-11-24T10:56:12.050Z,82.65
2022-11-24T10:58:56.377Z,82.59
2022-11-24T11:01:39.456Z,82.46
2022-11-24T11:04:26.304Z,82.67
2022-11-24T11:07:28.018Z,82.48
2022-11-24T11:10:20.577Z,82.71
2022-11-24T11:13:25.699Z,82.75
2022-11-24T11:16:27.464Z,82.99
2022-11-24T11:19:50.084Z,82.82
2022-11-24T11:22:37.180Z,82.83
2022-11-24T11:25:23.250Z,82.53
2022-11-24T11:28:22.975Z,82.47
2022-11-24T11:31:17.908Z,82.64
2022-11-24T11:34:23.749Z,82.58
2022-11-24T11:37:14.693Z,82.60
2022-11-24T11:39:59.088Z,82.51
2022-11-24T11:43:01.821Z,82.54
2022-11-24T11:45:47.701Z,82.49
2022-11-24T11:48:42.268Z,82.44
2022-11-24T11:51:48.616Z,82.65
2022-11-24T11:54:45.967Z,82.35
2022-11-24T11:57:39.085Z,82.44
2022-11-24T12:00:22.966Z,82.38
2022-11-24T12:03:31.210Z,82.49
2022-11-24T12:06:29.127Z,82.30
2022-11-24T12:09:26.121Z,82.50
2022-11-24T12:12:40.789Z,82.52
2022-11-24T12:15:32.426Z,82.58
2022-11-24T12:18:58.746Z,82.86
2022-11-24T12:21:38.014Z,82.57
2022-11-24T12:24:35.804Z,82.43
2022-11-24T12:27:29.485Z,82.27
2022-11-24T12:30:14.030Z,82.26
2022-11-24T12:33:15.255Z,82.28
2022-11-24T12:36:07.791Z,82.01
2022-11-24T12:39:01.285Z,82.01
2022-11-24T12:41:59.771Z,82.15
2022-11-24T12:45:13.117Z,82.07
2022-11-24T12:48:14.957Z,82.07
2022-11-24T12:51:00.031Z,82.00
2022-11-24T12:53:45.704Z,82.17
2022-11-24T12:56:36.898Z,82.18
2022-11-24T12:59:31.643Z,82.03
2022-11-24T13:02:25.559Z,81.88
2022-11-24T13:05:21.087Z,81.97
2022-11-24T13:08:06.415Z,81.82
2022-11-24T13:10:57.982Z,81.65
2022-11-24T13:13:59.012Z,81.74
2022-11-24T13:20:17.221Z,81.31
2022-11-24T13:23:14.942Z,81.30
2022-11-24T13:26:16.383Z,81.16
2022-11-24T13:29:09.275Z,81.16
2022-11-24T13:32:34.381Z,81.26
2022-11-24T13:35:19.043Z,81.41
2022-11-24T13:38:01.759Z,81.80
2022-11-24T13:40:59.815Z,81.35
2022-11-24T13:44:20.742Z,81.53
2022-11-24T13:47:06.816Z,82.05
2022-11-24T13:49:50.373Z,81.54
2022-11-24T13:52:45.220Z,81.61
2022-11-24T13:55:35.764Z,81.74
2022-11-24T13:58:32.538Z,81.63
2022-11-24T14:01:20.430Z,81.67
2022-11-24T14:04:33.554Z,81.58
2022-11-24T14:07:17.978Z,81.56
2022-11-24T14:10:03.212Z,81.53
2022-11-24T14:12:46.119Z,81.56
2022-11-24T14:15:34.252Z,81.47
2022-11-24T14:18:23.209Z,81.86
2022-11-24T14:21:23.379Z,81.58
2022-11-24T14:24:13.625Z,81.70
2022-11-24T14:26:58.020Z,81.12
2022-11-24T14:29:54.518Z,81.36
2022-11-24T14:32:38.017Z,81.39
2022-11-24T14:35:25.257Z,82.33
2022-11-24T14:38:12.320Z,81.97
2022-11-24T14:40:56.732Z,81.76
2022-11-24T14:43:41.106Z,81.69
2022-11-24T14:46:24.086Z,82.19
2022-11-24T14:49:07.337Z,81.69
2022-11-24T14:51:56.770Z,81.47
2022-11-24T14:54:47.896Z,81.91
2022-11-24T14:57:33.462Z,81.43
2022-11-24T15:04:54.310Z,81.64
2022-11-24T15:07:30.554Z,81.47
2022-11-24T15:10:26.647Z,81.68
2022-11-24T15:13:18.664Z,81.36
2022-11-24T15:16:04.928Z,81.23
2022-11-24T15:18:50.022Z,82.00
2022-11-24T15:21:34.127Z,81.48
2022-11-24T15:24:18.664Z,81.13
2022-11-24T15:27:01.837Z,80.79
2022-11-24T15:29:44.843Z,80.62
2022-11-24T15:32:29.131Z,80.75
2022-11-24T15:35:13.115Z,81.03
2022-11-24T15:37:56.157Z,80.84
2022-11-24T15:40:39.366Z,80.45
2022-11-24T15:43:29.614Z,80.41
2022-11-24T15:46:12.817Z,80.47
2022-11-24T15:48:57.492Z,80.74
2022-11-24T15:51:43.863Z,80.91
2022-11-24T15:54:27.669Z,80.70
2022-11-24T15:57:11.914Z,80.31
2022-11-24T15:59:54.882Z,80.37
2022-11-24T16:02:37.962Z,80.14
2022-11-24T16:05:22.337Z,80.12
2022-11-24T16:08:05.775Z,80.13
2022-11-24T16:10:48.933Z,80.21
2022-11-24T16:13:32.171Z,80.16
2022-11-24T16:16:16.470Z,80.21
2022-11-24T16:18:59.682Z,80.04
2022-11-24T16:21:44.057Z,80.19
2022-11-24T16:24:27.007Z,80.16
2022-11-24T16:27:10.378Z,80.20
2022-11-24T16:29:53.331Z,80.28
2022-11-24T16:32:37.314Z,80.22
2022-11-24T16:35:20.351Z,80.07
2022-11-24T16:38:04.740Z,80.13
2022-11-24T16:40:52.491Z,80.33
2022-11-24T16:43:35.459Z,79.98
2022-11-24T16:46:21.613Z,80.09
2022-11-24T16:49:04.663Z,80.06
2022-11-24T16:51:47.759Z,80.03
2022-11-24T16:54:32.720Z,79.97
2022-11-24T16:57:16.573Z,80.21
2022-11-24T16:59:59.507Z,80.23
2022-11-24T17:02:42.535Z,80.26
2022-11-24T17:05:25.639Z,80.40
2022-11-24T17:08:09.377Z,80.32
2022-11-24T17:10:53.771Z,80.21
2022-11-24T17:13:36.806Z,79.98
2022-11-24T17:16:21.899Z,80.18
2022-11-24T17:19:05.535Z,80.04
2022-11-24T17:21:48.548Z,79.92
2022-11-24T17:24:31.601Z,79.95
2022-11-24T17:27:16.029Z,79.96
2022-11-24T17:29:59.171Z,79.96
2022-11-24T17:32:42.161Z,80.04
2022-11-24T17:35:25.146Z,80.17
2022-11-24T17:38:08.281Z,80.10
2022-11-24T17:40:51.237Z,80.12
2022-11-24T17:43:35.877Z,80.19
2022-11-24T17:46:20.635Z,80.23
2022-11-24T17:49:04.453Z,80.18
2022-11-24T17:51:50.534Z,80.08
2022-11-24T17:54:48.993Z,80.03
2022-11-24T17:57:31.985Z,80.09
2022-11-24T18:00:17.742Z,79.95
2022-11-24T18:03:01.446Z,79.87
2022-11-24T18:05:44.506Z,79.93
2022-11-24T18:08:27.850Z,80.00
2022-11-24T18:11:13.422Z,79.78
2022-11-24T18:14:00.592Z,79.98
2022-11-24T18:16:45.772Z,80.06
2022-11-24T18:19:28.745Z,80.08
2022-11-24T18:22:11.734Z,80.06
2022-11-24T18:24:54.729Z,79.99
2022-11-24T18:27:37.738Z,80.10
2022-11-24T18:30:21.244Z,80.04
2022-11-24T18:33:05.654Z,79.88
2022-11-24T18:35:56.801Z,80.06
2022-11-24T18:38:39.747Z,79.95
2022-11-24T18:41:22.764Z,79.83
2022-11-24T18:44:08.411Z,79.99
2022-11-24T18:46:51.634Z,80.00
2022-11-24T18:49:35.920Z,79.92
2022-11-24T18:52:18.868Z,80.25
2022-11-24T18:55:03.933Z,80.20
2022-11-24T18:57:46.943Z,80.12
2022-11-24T19:00:29.990Z,80.07
2022-11-24T19:03:13.032Z,80.02
2022-11-24T19:05:57.302Z,80.14
2022-11-24T19:08:40.291Z,80.09
2022-11-24T19:11:25.330Z,80.06
2022-11-24T19:14:10.465Z,79.97
2022-11-24T19:16:53.435Z,80.00
2022-11-24T19:19:36.489Z,80.03
2022-11-24T19:22:20.837Z,80.09
2022-11-24T19:25:03.803Z,79.78
2022-11-24T19:27:46.740Z,79.77
2022-11-24T19:30:30.285Z,79.67
2022-11-24T19:33:13.361Z,79.82
2022-11-24T19:36:03.556Z,79.63
2022-11-24T19:38:52.207Z,79.75
2022-11-24T19:41:35.471Z,79.61
2022-11-24T19:44:18.689Z,79.73
2022-11-24T19:47:01.665Z,79.54
2022-11-24T19:49:44.654Z,79.76
2022-11-24T19:52:27.624Z,79.94
2022-11-24T19:55:12.085Z,80.01
2022-11-24T19:57:55.264Z,79.91
2022-11-24T20:00:38.264Z,79.71
2022-11-24T20:03:21.231Z,79.60
2022-11-24T20:06:05.227Z,79.62
2022-11-24T20:08:48.255Z,79.57
2022-11-24T20:11:32.655Z,79.68
2022-11-24T20:14:18.909Z,79.52
2022-11-24T20:17:01.972Z,79.72
2022-11-24T20:19:45.035Z,79.71
2022-11-24T20:22:27.993Z,79.58
2022-11-24T20:25:11.578Z,79.61
2022-11-24T20:27:55.911Z,79.50
2022-11-24T20:30:38.935Z,79.69
2022-11-24T20:33:21.913Z,79.46
2022-11-24T20:36:06.235Z,79.52
2022-11-24T20:38:50.873Z,79.56
2022-11-24T20:41:34.916Z,79.76
2022-11-24T20:44:21.379Z,79.60
2022-11-24T20:47:06.297Z,79.60
2022-11-24T20:49:49.282Z,79.51
2022-11-24T20:52:32.251Z,79.93
2022-11-24T20:55:15.321Z,79.80
2022-11-24T20:57:58.331Z,79.93
2022-11-24T21:00:42.659Z,79.72
2022-11-24T21:03:25.838Z,79.53
2022-11-24T21:06:10.037Z,79.83
2022-11-24T21:08:53.219Z,79.71
2022-11-24T21:11:36.821Z,79.90
2022-11-24T21:14:19.714Z,80.01
2022-11-24T21:17:04.029Z,79.88
2022-11-24T21:19:47.288Z,79.81
2022-11-24T21:22:30.449Z,79.71
2022-11-24T21:25:13.396Z,79.52
2022-11-24T21:27:56.356Z,79.92
2022-11-24T21:30:39.772Z,79.92
2022-11-24T21:33:24.636Z,79.73
2022-11-24T21:36:08.382Z,79.80
2022-11-24T21:38:52.684Z,79.58
2022-11-24T21:41:35.704Z,79.58
2022-11-24T21:44:18.711Z,79.52
2022-11-24T21:47:01.693Z,79.53
2022-11-24T21:49:45.990Z,79.57
2022-11-24T21:52:29.017Z,79.68
2022-11-24T21:55:11.993Z,79.28
2022-11-24T21:57:55.025Z,79.33
2022-11-24T22:00:37.971Z,79.23
2022-11-24T22:03:21.413Z,79.28
2022-11-24T22:06:06.477Z,79.16
2022-11-24T22:08:50.312Z,79.15
2022-11-24T22:11:33.223Z,79.44
2022-11-24T22:14:16.496Z,79.25
2022-11-24T22:16:59.418Z,79.33
2022-11-24T22:19:42.456Z,79.40
2022-11-24T22:22:26.849Z,79.37
2022-11-24T22:25:10.205Z,79.21
2022-11-24T22:27:53.194Z,79.28
2022-11-24T22:30:36.465Z,79.23
2022-11-24T22:33:19.454Z,78.97
2022-11-24T22:36:03.255Z,78.86
2022-11-24T22:38:48.196Z,78.95
2022-11-24T22:41:31.626Z,78.89
2022-11-24T22:44:14.617Z,78.66
2022-11-24T22:46:59.881Z,78.59
2022-11-24T22:49:42.946Z,78.71
2022-11-24T22:52:25.890Z,78.66
2022-11-24T22:55:10.497Z,78.71
2022-11-24T22:57:56.858Z,78.65
2022-11-24T23:00:40.112Z,78.74
2022-11-24T23:03:23.108Z,78.70
2022-11-24T23:06:09.493Z,78.50
2022-11-24T23:08:53.518Z,78.23
2022-11-24T23:11:39.901Z,78.37
2022-11-24T23:14:22.803Z,78.41
2022-11-24T23:17:05.740Z,78.26
2022-11-24T23:19:48.926Z,78.22
2022-11-24T23:22:31.898Z,78.43
2022-11-24T23:25:14.914Z,78.37
2022-11-24T23:27:59.285Z,78.21
2022-11-24T23:30:42.232Z,78.41
2022-11-24T23:33:25.249Z,78.22
2022-11-24T23:36:10.643Z,78.29
2022-11-24T23:38:54.482Z,78.38
2022-11-24T23:41:37.522Z,78.32
2022-11-24T23:44:22.139Z,78.19
2022-11-24T23:47:04.984Z,78.20
2022-11-24T23:49:47.894Z,78.24
2022-11-24T23:52:31.457Z,78.19
2022-11-24T23:55:14.461Z,78.27
2022-11-24T23:57:57.415Z,78.08
